sensor_id;sensor_type;location;lat;lon;timestamp;pressure;altitude;pressure_sealevel;temperature;humidity
54872;BME280;43914;57.680;11.982;2023-07-31T00:02:04;99470.16;;;13.41;100.00
54872;BME280;43914;57.680;11.982;2023-07-31T00:04:30;99466.86;;;13.39;100.00
54872;BME280;43914;57.680;11.982;2023-07-31T00:06:55;99470.14;;;13.39;100.00
54872;BME280;43914;57.680;11.982;2023-07-31T00:09:21;99470.38;;;13.39;100.00
54872;BME280;43914;57.680;11.982;2023-07-31T00:11:46;99471.94;;;13.39;100.00
54872;BME280;43914;57.680;11.982;2023-07-31T00:14:12;99468.17;;;13.37;100.00
54872;BME280;43914;57.680;11.982;2023-07-31T00:16:37;99469.39;;;13.37;100.00
54872;BME280;43914;57.680;11.982;2023-07-31T00:19:02;99467.95;;;13.37;100.00
54872;BME280;43914;57.680;11.982;2023-07-31T00:21:28;99460.77;;;13.37;100.00
54872;BME280;43914;57.680;11.982;2023-07-31T00:23:53;99462.32;;;13.36;100.00
54872;BME280;43914;57.680;11.982;2023-07-31T00:26:19;99466.48;;;13.37;100.00
54872;BME280;43914;57.680;11.982;2023-07-31T00:28:44;99466.40;;;13.35;100.00
54872;BME280;43914;57.680;11.982;2023-07-31T00:31:10;99472.54;;;13.35;100.00
54872;BME280;43914;57.680;11.982;2023-07-31T00:33:35;99462.21;;;13.32;100.00
54872;BME280;43914;57.680;11.982;2023-07-31T00:36:02;99469.59;;;13.38;100.00
54872;BME280;43914;57.680;11.982;2023-07-31T00:38:27;99471.28;;;13.41;100.00
54872;BME280;43914;57.680;11.982;2023-07-31T00:40:53;99463.48;;;13.40;100.00
54872;BME280;43914;57.680;11.982;2023-07-31T00:43:18;99460.81;;;13.41;100.00
54872;BME280;43914;57.680;11.982;2023-07-31T00:45:44;99461.37;;;13.40;100.00
54872;BME280;43914;57.680;11.982;2023-07-31T00:48:11;99458.61;;;13.37;100.00
54872;BME280;43914;57.680;11.982;2023-07-31T00:50:37;99456.69;;;13.35;100.00
54872;BME280;43914;57.680;11.982;2023-07-31T00:53:03;99455.98;;;13.33;100.00
54872;BME280;43914;57.680;11.982;2023-07-31T00:55:29;99452.23;;;13.29;100.00
54872;BME280;43914;57.680;11.982;2023-07-31T00:57:55;99452.07;;;13.26;100.00
54872;BME280;43914;57.680;11.982;2023-07-31T01:00:21;99452.08;;;13.25;100.00
54872;BME280;43914;57.680;11.982;2023-07-31T01:02:48;99449.27;;;13.22;100.00
54872;BME280;43914;57.680;11.982;2023-07-31T01:05:14;99452.39;;;13.20;100.00
54872;BME280;43914;57.680;11.982;2023-07-31T01:10:50;99453.31;;;13.13;100.00
54872;BME280;43914;57.680;11.982;2023-07-31T01:13:17;99453.66;;;13.12;100.00
54872;BME280;43914;57.680;11.982;2023-07-31T01:15:43;99448.73;;;13.09;100.00
54872;BME280;43914;57.680;11.982;2023-07-31T01:18:09;99446.92;;;13.06;100.00
54872;BME280;43914;57.680;11.982;2023-07-31T01:20:35;99449.63;;;13.03;100.00
54872;BME280;43914;57.680;11.982;2023-07-31T01:23:33;99448.64;;;13.00;100.00
54872;BME280;43914;57.680;11.982;2023-07-31T01:26:19;99450.87;;;12.95;100.00
54872;BME280;43914;57.680;11.982;2023-07-31T01:31:23;99444.65;;;12.90;100.00
54872;BME280;43914;57.680;11.982;2023-07-31T01:33:52;99443.33;;;12.86;100.00
54872;BME280;43914;57.680;11.982;2023-07-31T01:36:19;99440.61;;;12.83;100.00
54872;BME280;43914;57.680;11.982;2023-07-31T01:38:46;99435.61;;;12.81;100.00
54872;BME280;43914;57.680;11.982;2023-07-31T01:41:11;99434.77;;;12.80;100.00
54872;BME280;43914;57.680;11.982;2023-07-31T01:43:37;99427.41;;;12.77;100.00
54872;BME280;43914;57.680;11.982;2023-07-31T01:46:02;99429.11;;;12.76;100.00
54872;BME280;43914;57.680;11.982;2023-07-31T01:48:28;99430.25;;;12.74;100.00
54872;BME280;43914;57.680;11.982;2023-07-31T01:50:53;99429.80;;;12.74;100.00
54872;BME280;43914;57.680;11.982;2023-07-31T01:53:19;99426.34;;;12.73;100.00
54872;BME280;43914;57.680;11.982;2023-07-31T01:55:44;99427.96;;;12.73;100.00
54872;BME280;43914;57.680;11.982;2023-07-31T01:58:10;99422.04;;;12.71;100.00
54872;BME280;43914;57.680;11.982;2023-07-31T02:00:35;99419.84;;;12.72;100.00
54872;BME280;43914;57.680;11.982;2023-07-31T02:03:01;99414.56;;;12.72;100.00
54872;BME280;43914;57.680;11.982;2023-07-31T02:05:26;99415.29;;;12.73;100.00
54872;BME280;43914;57.680;11.982;2023-07-31T02:07:52;99410.02;;;12.74;100.00
54872;BME280;43914;57.680;11.982;2023-07-31T02:10:17;99405.40;;;12.74;100.00
54872;BME280;43914;57.680;11.982;2023-07-31T02:12:42;99404.55;;;12.75;100.00
54872;BME280;43914;57.680;11.982;2023-07-31T02:15:08;99398.33;;;12.76;100.00
54872;BME280;43914;57.680;11.982;2023-07-31T02:17:34;99402.02;;;12.78;100.00
54872;BME280;43914;57.680;11.982;2023-07-31T02:20:00;99401.55;;;12.77;100.00
54872;BME280;43914;57.680;11.982;2023-07-31T02:22:25;99401.61;;;12.76;100.00
54872;BME280;43914;57.680;11.982;2023-07-31T02:24:51;99397.13;;;12.76;100.00
54872;BME280;43914;57.680;11.982;2023-07-31T02:27:16;99396.52;;;12.75;100.00
54872;BME280;43914;57.680;11.982;2023-07-31T02:29:42;99392.63;;;12.75;100.00
54872;BME280;43914;57.680;11.982;2023-07-31T02:32:07;99394.99;;;12.72;100.00
54872;BME280;43914;57.680;11.982;2023-07-31T02:34:33;99397.78;;;12.71;100.00
54872;BME280;43914;57.680;11.982;2023-07-31T02:36:58;99394.73;;;12.70;100.00
54872;BME280;43914;57.680;11.982;2023-07-31T02:39:24;99399.41;;;12.70;100.00
54872;BME280;43914;57.680;11.982;2023-07-31T02:41:49;99397.30;;;12.68;100.00
54872;BME280;43914;57.680;11.982;2023-07-31T02:44:14;99402.02;;;12.68;100.00
54872;BME280;43914;57.680;11.982;2023-07-31T02:46:40;99396.33;;;12.69;100.00
54872;BME280;43914;57.680;11.982;2023-07-31T02:49:06;99394.88;;;12.72;100.00
54872;BME280;43914;57.680;11.982;2023-07-31T02:51:31;99396.37;;;12.71;100.00
54872;BME280;43914;57.680;11.982;2023-07-31T02:53:56;99392.90;;;12.70;100.00
54872;BME280;43914;57.680;11.982;2023-07-31T02:56:23;99389.13;;;12.70;100.00
54872;BME280;43914;57.680;11.982;2023-07-31T02:58:48;99388.05;;;12.70;100.00
54872;BME280;43914;57.680;11.982;2023-07-31T03:01:14;99387.02;;;12.72;100.00
54872;BME280;43914;57.680;11.982;2023-07-31T03:03:41;99386.98;;;12.74;100.00
54872;BME280;43914;57.680;11.982;2023-07-31T03:06:06;99384.89;;;12.74;100.00
54872;BME280;43914;57.680;11.982;2023-07-31T03:08:32;99382.69;;;12.74;100.00
54872;BME280;43914;57.680;11.982;2023-07-31T03:10:57;99388.13;;;12.74;100.00
54872;BME280;43914;57.680;11.982;2023-07-31T03:13:23;99386.37;;;12.74;100.00
54872;BME280;43914;57.680;11.982;2023-07-31T03:15:48;99387.84;;;12.75;100.00
54872;BME280;43914;57.680;11.982;2023-07-31T03:18:14;99385.41;;;12.77;100.00
54872;BME280;43914;57.680;11.982;2023-07-31T03:20:45;99384.15;;;12.78;100.00
54872;BME280;43914;57.680;11.982;2023-07-31T03:23:11;99386.74;;;12.80;100.00
54872;BME280;43914;57.680;11.982;2023-07-31T03:25:37;99382.46;;;12.80;100.00
54872;BME280;43914;57.680;11.982;2023-07-31T03:28:02;99379.19;;;12.80;100.00
54872;BME280;43914;57.680;11.982;2023-07-31T03:30:28;99375.95;;;12.80;100.00
54872;BME280;43914;57.680;11.982;2023-07-31T03:32:53;99372.80;;;12.80;100.00
54872;BME280;43914;57.680;11.982;2023-07-31T03:35:19;99376.16;;;12.80;100.00
54872;BME280;43914;57.680;11.982;2023-07-31T03:37:44;99372.20;;;12.81;100.00
54872;BME280;43914;57.680;11.982;2023-07-31T03:40:10;99371.70;;;12.83;100.00
54872;BME280;43914;57.680;11.982;2023-07-31T03:42:36;99368.89;;;12.88;100.00
54872;BME280;43914;57.680;11.982;2023-07-31T03:45:01;99373.86;;;12.90;100.00
54872;BME280;43914;57.680;11.982;2023-07-31T03:47:27;99371.89;;;12.92;100.00
54872;BME280;43914;57.680;11.982;2023-07-31T03:49:52;99369.43;;;12.92;100.00
54872;BME280;43914;57.680;11.982;2023-07-31T03:52:18;99371.95;;;12.94;100.00
54872;BME280;43914;57.680;11.982;2023-07-31T03:54:43;99373.05;;;12.94;100.00
54872;BME280;43914;57.680;11.982;2023-07-31T03:57:10;99373.23;;;12.96;100.00
54872;BME280;43914;57.680;11.982;2023-07-31T03:59:36;99368.95;;;12.97;100.00
54872;BME280;43914;57.680;11.982;2023-07-31T04:02:04;99371.52;;;12.97;100.00
54872;BME280;43914;57.680;11.982;2023-07-31T04:04:29;99365.63;;;12.97;100.00
54872;BME280;43914;57.680;11.982;2023-07-31T04:06:55;99366.40;;;12.98;100.00
54872;BME280;43914;57.680;11.982;2023-07-31T04:09:20;99367.36;;;12.98;100.00
54872;BME280;43914;57.680;11.982;2023-07-31T04:11:46;99364.38;;;13.00;100.00
54872;BME280;43914;57.680;11.982;2023-07-31T04:14:11;99369.30;;;13.01;100.00
54872;BME280;43914;57.680;11.982;2023-07-31T04:16:37;99372.56;;;13.02;100.00
54872;BME280;43914;57.680;11.982;2023-07-31T04:19:03;99372.04;;;13.03;100.00
54872;BME280;43914;57.680;11.982;2023-07-31T04:21:29;99368.29;;;13.04;100.00
54872;BME280;43914;57.680;11.982;2023-07-31T04:23:54;99366.39;;;13.06;100.00
54872;BME280;43914;57.680;11.982;2023-07-31T04:26:21;99363.98;;;13.07;100.00
54872;BME280;43914;57.680;11.982;2023-07-31T04:28:47;99363.36;;;13.10;100.00
54872;BME280;43914;57.680;11.982;2023-07-31T04:31:13;99352.44;;;13.11;100.00
54872;BME280;43914;57.680;11.982;2023-07-31T04:33:38;99355.20;;;13.12;100.00
54872;BME280;43914;57.680;11.982;2023-07-31T04:36:04;99350.97;;;13.14;100.00
54872;BME280;43914;57.680;11.982;2023-07-31T04:38:30;99350.67;;;13.14;100.00
54872;BME280;43914;57.680;11.982;2023-07-31T04:40:55;99347.59;;;13.17;100.00
54872;BME280;43914;57.680;11.982;2023-07-31T04:43:21;99346.98;;;13.21;100.00
54872;BME280;43914;57.680;11.982;2023-07-31T04:45:47;99348.38;;;13.23;100.00
54872;BME280;43914;57.680;11.982;2023-07-31T04:48:13;99350.64;;;13.27;100.00
54872;BME280;43914;57.680;11.982;2023-07-31T04:50:39;99344.24;;;13.32;100.00
54872;BME280;43914;57.680;11.982;2023-07-31T04:53:05;99341.00;;;13.36;100.00
54872;BME280;43914;57.680;11.982;2023-07-31T04:55:30;99340.16;;;13.41;100.00
54872;BME280;43914;57.680;11.982;2023-07-31T04:57:55;99345.06;;;13.46;100.00
54872;BME280;43914;57.680;11.982;2023-07-31T05:00:21;99344.91;;;13.52;100.00
54872;BME280;43914;57.680;11.982;2023-07-31T05:02:46;99346.52;;;13.60;100.00
54872;BME280;43914;57.680;11.982;2023-07-31T05:05:12;99347.17;;;13.66;100.00
54872;BME280;43914;57.680;11.982;2023-07-31T05:07:38;99341.51;;;13.71;100.00
54872;BME280;43914;57.680;11.982;2023-07-31T05:10:03;99340.52;;;13.75;100.00
54872;BME280;43914;57.680;11.982;2023-07-31T05:12:29;99341.75;;;13.77;100.00
54872;BME280;43914;57.680;11.982;2023-07-31T05:14:54;99339.41;;;13.80;100.00
54872;BME280;43914;57.680;11.982;2023-07-31T05:17:20;99335.70;;;13.80;100.00
54872;BME280;43914;57.680;11.982;2023-07-31T05:19:45;99332.20;;;13.81;100.00
54872;BME280;43914;57.680;11.982;2023-07-31T05:22:11;99330.80;;;13.82;100.00
54872;BME280;43914;57.680;11.982;2023-07-31T05:24:36;99331.88;;;13.84;100.00
54872;BME280;43914;57.680;11.982;2023-07-31T05:27:02;99332.06;;;13.88;100.00
54872;BME280;43914;57.680;11.982;2023-07-31T05:29:27;99331.73;;;13.90;100.00
54872;BME280;43914;57.680;11.982;2023-07-31T05:31:53;99329.36;;;13.94;100.00
54872;BME280;43914;57.680;11.982;2023-07-31T05:34:19;99328.66;;;13.97;100.00
54872;BME280;43914;57.680;11.982;2023-07-31T05:36:44;99326.45;;;14.05;100.00
54872;BME280;43914;57.680;11.982;2023-07-31T05:39:10;99327.21;;;14.13;100.00
54872;BME280;43914;57.680;11.982;2023-07-31T05:41:35;99322.39;;;14.19;100.00
54872;BME280;43914;57.680;11.982;2023-07-31T05:44:01;99321.84;;;14.23;100.00
54872;BME280;43914;57.680;11.982;2023-07-31T05:46:26;99320.88;;;14.31;100.00
54872;BME280;43914;57.680;11.982;2023-07-31T05:48:52;99310.51;;;14.35;100.00
54872;BME280;43914;57.680;11.982;2023-07-31T05:51:18;99312.90;;;14.39;100.00
54872;BME280;43914;57.680;11.982;2023-07-31T05:53:43;99315.80;;;14.45;100.00
54872;BME280;43914;57.680;11.982;2023-07-31T05:56:11;99312.27;;;14.50;100.00
54872;BME280;43914;57.680;11.982;2023-07-31T05:58:37;99307.79;;;14.56;100.00
54872;BME280;43914;57.680;11.982;2023-07-31T06:01:04;99310.27;;;14.60;100.00
54872;BME280;43914;57.680;11.982;2023-07-31T06:03:29;99310.36;;;14.63;100.00
54872;BME280;43914;57.680;11.982;2023-07-31T06:05:58;99310.80;;;14.67;100.00
54872;BME280;43914;57.680;11.982;2023-07-31T06:08:23;99309.70;;;14.69;100.00
54872;BME280;43914;57.680;11.982;2023-07-31T06:10:49;99309.60;;;14.71;100.00
54872;BME280;43914;57.680;11.982;2023-07-31T06:13:14;99314.92;;;14.73;100.00
54872;BME280;43914;57.680;11.982;2023-07-31T06:15:40;99312.53;;;14.76;100.00
54872;BME280;43914;57.680;11.982;2023-07-31T06:18:05;99313.92;;;14.78;100.00
54872;BME280;43914;57.680;11.982;2023-07-31T06:20:34;99317.47;;;14.81;100.00
54872;BME280;43914;57.680;11.982;2023-07-31T06:22:59;99318.27;;;14.83;100.00
54872;BME280;43914;57.680;11.982;2023-07-31T06:25:25;99314.23;;;14.82;100.00
54872;BME280;43914;57.680;11.982;2023-07-31T06:27:51;99314.23;;;14.82;100.00
54872;BME280;43914;57.680;11.982;2023-07-31T06:30:16;99312.06;;;14.81;100.00
54872;BME280;43914;57.680;11.982;2023-07-31T06:32:42;99307.11;;;14.79;100.00
54872;BME280;43914;57.680;11.982;2023-07-31T06:35:08;99303.66;;;14.76;100.00
54872;BME280;43914;57.680;11.982;2023-07-31T06:37:34;99303.14;;;14.74;100.00
54872;BME280;43914;57.680;11.982;2023-07-31T06:39:59;99301.09;;;14.70;100.00
54872;BME280;43914;57.680;11.982;2023-07-31T06:42:25;99296.63;;;14.69;100.00
54872;BME280;43914;57.680;11.982;2023-07-31T06:44:51;99296.31;;;14.67;100.00
54872;BME280;43914;57.680;11.982;2023-07-31T06:47:16;99299.27;;;14.66;100.00
54872;BME280;43914;57.680;11.982;2023-07-31T06:49:42;99299.52;;;14.65;100.00
54872;BME280;43914;57.680;11.982;2023-07-31T06:52:07;99301.59;;;14.61;100.00
54872;BME280;43914;57.680;11.982;2023-07-31T06:54:33;99301.98;;;14.59;100.00
54872;BME280;43914;57.680;11.982;2023-07-31T06:56:58;99303.71;;;14.56;100.00
54872;BME280;43914;57.680;11.982;2023-07-31T06:59:24;99306.62;;;14.51;100.00
54872;BME280;43914;57.680;11.982;2023-07-31T07:01:50;99307.23;;;14.48;100.00
54872;BME280;43914;57.680;11.982;2023-07-31T07:04:15;99307.92;;;14.43;100.00
54872;BME280;43914;57.680;11.982;2023-07-31T07:06:41;99307.02;;;14.39;100.00
54872;BME280;43914;57.680;11.982;2023-07-31T07:09:07;99307.80;;;14.34;100.00
54872;BME280;43914;57.680;11.982;2023-07-31T07:11:33;99307.05;;;14.32;100.00
54872;BME280;43914;57.680;11.982;2023-07-31T07:14:02;99318.20;;;14.29;100.00
54872;BME280;43914;57.680;11.982;2023-07-31T07:16:28;99314.91;;;14.26;100.00
54872;BME280;43914;57.680;11.982;2023-07-31T07:18:55;99321.06;;;14.25;100.00
54872;BME280;43914;57.680;11.982;2023-07-31T07:21:20;99322.39;;;14.23;100.00
54872;BME280;43914;57.680;11.982;2023-07-31T07:23:46;99318.52;;;14.22;100.00
54872;BME280;43914;57.680;11.982;2023-07-31T07:26:11;99316.36;;;14.19;100.00
54872;BME280;43914;57.680;11.982;2023-07-31T07:28:36;99312.64;;;14.17;100.00
54872;BME280;43914;57.680;11.982;2023-07-31T07:31:03;99313.92;;;14.16;100.00
54872;BME280;43914;57.680;11.982;2023-07-31T07:33:29;99309.52;;;14.13;100.00
54872;BME280;43914;57.680;11.982;2023-07-31T07:35:54;99308.88;;;14.12;100.00
54872;BME280;43914;57.680;11.982;2023-07-31T07:38:20;99309.06;;;14.09;100.00
54872;BME280;43914;57.680;11.982;2023-07-31T07:40:46;99306.12;;;14.08;100.00
54872;BME280;43914;57.680;11.982;2023-07-31T07:43:16;99302.80;;;14.07;100.00
54872;BME280;43914;57.680;11.982;2023-07-31T07:45:41;99302.27;;;14.07;100.00
54872;BME280;43914;57.680;11.982;2023-07-31T07:48:07;99306.48;;;14.07;100.00
54872;BME280;43914;57.680;11.982;2023-07-31T07:50:32;99304.13;;;14.09;100.00
54872;BME280;43914;57.680;11.982;2023-07-31T07:52:58;99302.16;;;14.11;100.00
54872;BME280;43914;57.680;11.982;2023-07-31T07:55:24;99302.78;;;14.15;100.00
54872;BME280;43914;57.680;11.982;2023-07-31T07:57:49;99305.98;;;14.19;100.00
54872;BME280;43914;57.680;11.982;2023-07-31T08:00:35;99300.60;;;14.23;100.00
54872;BME280;43914;57.680;11.982;2023-07-31T08:03:00;99296.30;;;14.29;100.00
54872;BME280;43914;57.680;11.982;2023-07-31T08:05:26;99296.63;;;14.32;100.00
54872;BME280;43914;57.680;11.982;2023-07-31T08:07:51;99294.81;;;14.34;100.00
54872;BME280;43914;57.680;11.982;2023-07-31T08:10:17;99294.64;;;14.36;100.00
54872;BME280;43914;57.680;11.982;2023-07-31T08:12:42;99293.81;;;14.38;100.00
54872;BME280;43914;57.680;11.982;2023-07-31T08:15:08;99288.36;;;14.39;100.00
54872;BME280;43914;57.680;11.982;2023-07-31T08:17:34;99285.28;;;14.42;100.00
54872;BME280;43914;57.680;11.982;2023-07-31T08:19:59;99290.31;;;14.46;100.00
54872;BME280;43914;57.680;11.982;2023-07-31T08:22:25;99289.60;;;14.52;100.00
54872;BME280;43914;57.680;11.982;2023-07-31T08:24:51;99287.59;;;14.58;100.00
54872;BME280;43914;57.680;11.982;2023-07-31T08:27:16;99291.25;;;14.62;100.00
54872;BME280;43914;57.680;11.982;2023-07-31T08:29:42;99285.35;;;14.62;100.00
54872;BME280;43914;57.680;11.982;2023-07-31T08:32:07;99285.20;;;14.61;100.00
54872;BME280;43914;57.680;11.982;2023-07-31T08:34:32;99279.52;;;14.62;100.00
54872;BME280;43914;57.680;11.982;2023-07-31T08:36:58;99280.91;;;14.60;100.00
54872;BME280;43914;57.680;11.982;2023-07-31T08:39:23;99277.34;;;14.61;100.00
54872;BME280;43914;57.680;11.982;2023-07-31T08:41:49;99276.09;;;14.64;100.00
54872;BME280;43914;57.680;11.982;2023-07-31T08:44:15;99279.90;;;14.65;100.00
54872;BME280;43914;57.680;11.982;2023-07-31T08:46:42;99275.08;;;14.65;100.00
54872;BME280;43914;57.680;11.982;2023-07-31T08:49:09;99279.81;;;14.63;100.00
54872;BME280;43914;57.680;11.982;2023-07-31T08:51:36;99276.30;;;14.63;100.00
54872;BME280;43914;57.680;11.982;2023-07-31T08:54:02;99277.69;;;14.62;100.00
54872;BME280;43914;57.680;11.982;2023-07-31T08:56:34;99282.00;;;14.61;100.00
54872;BME280;43914;57.680;11.982;2023-07-31T08:59:04;99278.04;;;14.60;100.00
54872;BME280;43914;57.680;11.982;2023-07-31T09:01:32;99274.91;;;14.61;100.00
54872;BME280;43914;57.680;11.982;2023-07-31T09:04:01;99272.21;;;14.65;100.00
54872;BME280;43914;57.680;11.982;2023-07-31T09:06:28;99267.41;;;14.69;100.00
54872;BME280;43914;57.680;11.982;2023-07-31T09:08:55;99267.09;;;14.76;100.00
54872;BME280;43914;57.680;11.982;2023-07-31T09:11:21;99266.24;;;14.81;100.00
54872;BME280;43914;57.680;11.982;2023-07-31T09:13:48;99260.36;;;14.85;100.00
54872;BME280;43914;57.680;11.982;2023-07-31T09:16:15;99259.66;;;14.88;100.00
54872;BME280;43914;57.680;11.982;2023-07-31T09:18:53;99261.25;;;14.91;100.00
54872;BME280;43914;57.680;11.982;2023-07-31T09:21:20;99260.91;;;14.98;100.00
54872;BME280;43914;57.680;11.982;2023-07-31T09:23:46;99264.55;;;15.07;100.00
54872;BME280;43914;57.680;11.982;2023-07-31T09:26:39;99262.16;;;15.14;100.00
54872;BME280;43914;57.680;11.982;2023-07-31T09:29:06;99259.92;;;15.22;100.00
54872;BME280;43914;57.680;11.982;2023-07-31T09:31:43;99259.61;;;15.27;100.00
54872;BME280;43914;57.680;11.982;2023-07-31T09:34:10;99256.06;;;15.35;100.00
54872;BME280;43914;57.680;11.982;2023-07-31T09:36:43;99254.33;;;15.39;100.00
54872;BME280;43914;57.680;11.982;2023-07-31T09:39:10;99251.37;;;15.40;100.00
54872;BME280;43914;57.680;11.982;2023-07-31T09:41:43;99253.64;;;15.44;100.00
54872;BME280;43914;57.680;11.982;2023-07-31T09:44:10;99254.75;;;15.48;100.00
54872;BME280;43914;57.680;11.982;2023-07-31T09:46:36;99251.36;;;15.48;100.00
54872;BME280;43914;57.680;11.982;2023-07-31T09:49:12;99254.65;;;15.47;100.00
54872;BME280;43914;57.680;11.982;2023-07-31T09:51:38;99256.25;;;15.46;100.00
54872;BME280;43914;57.680;11.982;2023-07-31T09:54:12;99252.63;;;15.46;100.00
54872;BME280;43914;57.680;11.982;2023-07-31T09:56:46;99252.36;;;15.47;100.00
54872;BME280;43914;57.680;11.982;2023-07-31T09:59:14;99253.52;;;15.49;100.00
54872;BME280;43914;57.680;11.982;2023-07-31T10:01:41;99248.45;;;15.51;100.00
54872;BME280;43914;57.680;11.982;2023-07-31T10:04:11;99250.40;;;15.51;100.00
54872;BME280;43914;57.680;11.982;2023-07-31T10:06:37;99243.83;;;15.55;100.00
54872;BME280;43914;57.680;11.982;2023-07-31T10:09:09;99245.63;;;15.60;100.00
54872;BME280;43914;57.680;11.982;2023-07-31T10:11:47;99247.98;;;15.59;100.00
54872;BME280;43914;57.680;11.982;2023-07-31T10:14:19;99252.27;;;15.61;100.00
54872;BME280;43914;57.680;11.982;2023-07-31T10:16:45;99249.96;;;15.60;100.00
54872;BME280;43914;57.680;11.982;2023-07-31T10:19:10;99249.56;;;15.64;100.00
54872;BME280;43914;57.680;11.982;2023-07-31T10:21:37;99250.60;;;15.70;100.00
54872;BME280;43914;57.680;11.982;2023-07-31T10:24:05;99248.98;;;15.76;100.00
54872;BME280;43914;57.680;11.982;2023-07-31T10:26:32;99251.33;;;15.83;100.00
54872;BME280;43914;57.680;11.982;2023-07-31T10:29:01;99250.70;;;15.89;100.00
54872;BME280;43914;57.680;11.982;2023-07-31T10:31:28;99248.84;;;15.91;100.00
54872;BME280;43914;57.680;11.982;2023-07-31T10:33:54;99245.05;;;15.94;100.00
54872;BME280;43914;57.680;11.982;2023-07-31T10:36:21;99242.23;;;15.91;100.00
54872;BME280;43914;57.680;11.982;2023-07-31T10:38:49;99239.30;;;15.91;100.00
54872;BME280;43914;57.680;11.982;2023-07-31T10:41:16;99235.33;;;15.96;100.00
54872;BME280;43914;57.680;11.982;2023-07-31T10:43:42;99232.02;;;16.05;100.00
54872;BME280;43914;57.680;11.982;2023-07-31T10:46:09;99230.25;;;16.17;100.00
54872;BME280;43914;57.680;11.982;2023-07-31T10:48:35;99229.55;;;16.35;100.00
54872;BME280;43914;57.680;11.982;2023-07-31T10:51:10;99222.92;;;16.49;100.00
54872;BME280;43914;57.680;11.982;2023-07-31T10:53:36;99219.06;;;16.63;100.00
54872;BME280;43914;57.680;11.982;2023-07-31T10:56:05;99220.23;;;16.79;100.00
54872;BME280;43914;57.680;11.982;2023-07-31T10:58:32;99215.90;;;16.92;100.00
54872;BME280;43914;57.680;11.982;2023-07-31T11:01:00;99217.67;;;17.04;100.00
54872;BME280;43914;57.680;11.982;2023-07-31T11:03:49;99211.27;;;17.20;100.00
54872;BME280;43914;57.680;11.982;2023-07-31T11:06:18;99208.71;;;17.39;100.00
54872;BME280;43914;57.680;11.982;2023-07-31T11:08:46;99211.42;;;17.57;100.00
54872;BME280;43914;57.680;11.982;2023-07-31T11:11:13;99207.71;;;17.82;100.00
54872;BME280;43914;57.680;11.982;2023-07-31T11:13:44;99207.55;;;17.98;100.00
54872;BME280;43914;57.680;11.982;2023-07-31T11:16:13;99203.17;;;18.03;99.69
54872;BME280;43914;57.680;11.982;2023-07-31T11:18:41;99197.84;;;18.06;99.32
54872;BME280;43914;57.680;11.982;2023-07-31T11:21:08;99200.40;;;18.05;97.78
54872;BME280;43914;57.680;11.982;2023-07-31T11:23:36;99201.33;;;18.02;96.89
54872;BME280;43914;57.680;11.982;2023-07-31T11:26:02;99204.97;;;18.04;97.58
54872;BME280;43914;57.680;11.982;2023-07-31T11:28:32;99200.08;;;18.11;97.11
54872;BME280;43914;57.680;11.982;2023-07-31T11:30:59;99196.63;;;18.22;95.76
54872;BME280;43914;57.680;11.982;2023-07-31T11:33:25;99199.20;;;18.27;95.04
54872;BME280;43914;57.680;11.982;2023-07-31T11:35:50;99195.99;;;18.28;93.71
54872;BME280;43914;57.680;11.982;2023-07-31T11:38:33;99194.89;;;18.32;92.57
54872;BME280;43914;57.680;11.982;2023-07-31T11:41:04;99195.04;;;18.42;93.28
54872;BME280;43914;57.680;11.982;2023-07-31T11:43:31;99194.19;;;18.56;92.32
54872;BME280;43914;57.680;11.982;2023-07-31T11:45:58;99198.46;;;18.67;92.02
54872;BME280;43914;57.680;11.982;2023-07-31T11:48:38;99194.72;;;18.79;91.33
54872;BME280;43914;57.680;11.982;2023-07-31T11:51:06;99195.42;;;18.82;89.19
54872;BME280;43914;57.680;11.982;2023-07-31T11:53:41;99195.73;;;18.88;88.60
54872;BME280;43914;57.680;11.982;2023-07-31T11:56:11;99190.86;;;18.95;88.37
54872;BME280;43914;57.680;11.982;2023-07-31T11:58:38;99193.91;;;19.13;89.94
54872;BME280;43914;57.680;11.982;2023-07-31T12:01:10;99190.35;;;19.30;89.26
54872;BME280;43914;57.680;11.982;2023-07-31T12:03:37;99191.89;;;19.46;86.83
54872;BME280;43914;57.680;11.982;2023-07-31T12:06:04;99187.55;;;19.43;85.02
54872;BME280;43914;57.680;11.982;2023-07-31T12:08:30;99192.21;;;19.26;84.44
54872;BME280;43914;57.680;11.982;2023-07-31T12:11:04;99190.95;;;19.06;84.38
54872;BME280;43914;57.680;11.982;2023-07-31T12:13:31;99186.69;;;18.90;84.70
54872;BME280;43914;57.680;11.982;2023-07-31T12:15:59;99178.33;;;18.83;85.78
54872;BME280;43914;57.680;11.982;2023-07-31T12:18:27;99176.55;;;18.79;86.06
54872;BME280;43914;57.680;11.982;2023-07-31T12:20:58;99174.59;;;18.77;86.26
54872;BME280;43914;57.680;11.982;2023-07-31T12:23:27;99173.98;;;18.82;86.52
54872;BME280;43914;57.680;11.982;2023-07-31T12:26:15;99174.16;;;18.94;86.88
54872;BME280;43914;57.680;11.982;2023-07-31T12:28:43;99171.23;;;19.03;85.91
54872;BME280;43914;57.680;11.982;2023-07-31T12:31:10;99170.89;;;19.10;86.13
54872;BME280;43914;57.680;11.982;2023-07-31T12:33:37;99171.09;;;19.13;84.25
54872;BME280;43914;57.680;11.982;2023-07-31T12:36:07;99171.54;;;19.32;83.53
54872;BME280;43914;57.680;11.982;2023-07-31T12:38:33;99174.30;;;19.61;82.63
54872;BME280;43914;57.680;11.982;2023-07-31T12:40:59;99173.67;;;19.78;80.83
54872;BME280;43914;57.680;11.982;2023-07-31T12:43:25;99175.08;;;19.80;79.48
54872;BME280;43914;57.680;11.982;2023-07-31T12:45:50;99172.19;;;19.73;78.90